sensor_id;sensor_type;location;lat;lon;timestamp;temperature;humidity
40454;DHT22;26160;51.858;4.398;2022-10-29T00:01:54;12.40;99.90
40454;DHT22;26160;51.858;4.398;2022-10-29T00:04:20;12.60;99.90
40454;DHT22;26160;51.858;4.398;2022-10-29T00:06:47;12.70;99.90
40454;DHT22;26160;51.858;4.398;2022-10-29T00:09:13;12.50;99.90
40454;DHT22;26160;51.858;4.398;2022-10-29T00:11:39;12.50;99.90
40454;DHT22;26160;51.858;4.398;2022-10-29T00:14:06;12.40;99.90
40454;DHT22;26160;51.858;4.398;2022-10-29T00:16:37;12.50;99.90
40454;DHT22;26160;51.858;4.398;2022-10-29T00:19:04;12.40;99.90
40454;DHT22;26160;51.858;4.398;2022-10-29T00:21:31;12.30;99.90
40454;DHT22;26160;51.858;4.398;2022-10-29T00:23:57;12.30;99.90
40454;DHT22;26160;51.858;4.398;2022-10-29T00:26:24;12.20;99.90
40454;DHT22;26160;51.858;4.398;2022-10-29T00:28:54;12.20;99.90
40454;DHT22;26160;51.858;4.398;2022-10-29T00:31:20;12.20;99.90
40454;DHT22;26160;51.858;4.398;2022-10-29T00:33:50;12.20;99.90
40454;DHT22;26160;51.858;4.398;2022-10-29T00:36:19;12.10;99.90
40454;DHT22;26160;51.858;4.398;2022-10-29T00:38:47;12.00;99.90
40454;DHT22;26160;51.858;4.398;2022-10-29T00:41:16;12.00;99.90
40454;DHT22;26160;51.858;4.398;2022-10-29T00:43:46;11.90;99.90
40454;DHT22;26160;51.858;4.398;2022-10-29T00:46:32;11.90;99.90
40454;DHT22;26160;51.858;4.398;2022-10-29T00:48:59;11.90;99.90
40454;DHT22;26160;51.858;4.398;2022-10-29T00:51:26;11.90;99.90
40454;DHT22;26160;51.858;4.398;2022-10-29T00:54:14;11.90;99.90
40454;DHT22;26160;51.858;4.398;2022-10-29T00:56:51;11.90;99.90
40454;DHT22;26160;51.858;4.398;2022-10-29T00:59:18;11.80;99.90
40454;DHT22;26160;51.858;4.398;2022-10-29T01:04:21;11.80;99.90
40454;DHT22;26160;51.858;4.398;2022-10-29T01:06:48;11.70;99.90
40454;DHT22;26160;51.858;4.398;2022-10-29T01:09:14;11.70;99.90
40454;DHT22;26160;51.858;4.398;2022-10-29T01:12:09;11.60;99.90
40454;DHT22;26160;51.858;4.398;2022-10-29T01:14:59;11.60;99.90
40454;DHT22;26160;51.858;4.398;2022-10-29T01:17:41;11.60;99.90
40454;DHT22;26160;51.858;4.398;2022-10-29T01:23:39;11.60;99.90
40454;DHT22;26160;51.858;4.398;2022-10-29T01:27:21;11.50;99.90
40454;DHT22;26160;51.858;4.398;2022-10-29T01:32:11;11.60;99.90
40454;DHT22;26160;51.858;4.398;2022-10-29T01:35:03;11.50;99.90
40454;DHT22;26160;51.858;4.398;2022-10-29T01:43:39;11.40;99.90
40454;DHT22;26160;51.858;4.398;2022-10-29T01:46:32;11.40;99.90
40454;DHT22;26160;51.858;4.398;2022-10-29T01:49:04;11.30;99.90
40454;DHT22;26160;51.858;4.398;2022-10-29T01:51:34;11.30;99.90
40454;DHT22;26160;51.858;4.398;2022-10-29T01:54:06;11.30;99.90
40454;DHT22;26160;51.858;4.398;2022-10-29T01:56:33;11.20;99.90
40454;DHT22;26160;51.858;4.398;2022-10-29T01:59:02;11.20;99.90
40454;DHT22;26160;51.858;4.398;2022-10-29T02:02:14;11.20;99.90
40454;DHT22;26160;51.858;4.398;2022-10-29T02:04:52;11.10;99.90
40454;DHT22;26160;51.858;4.398;2022-10-29T02:10:13;11.00;99.90
40454;DHT22;26160;51.858;4.398;2022-10-29T02:12:52;11.00;99.90
40454;DHT22;26160;51.858;4.398;2022-10-29T02:17:51;10.90;99.90
40454;DHT22;26160;51.858;4.398;2022-10-29T02:20:17;10.90;99.90
40454;DHT22;26160;51.858;4.398;2022-10-29T02:22:44;10.90;99.90
40454;DHT22;26160;51.858;4.398;2022-10-29T02:25:10;11.00;99.90
40454;DHT22;26160;51.858;4.398;2022-10-29T02:27:36;11.10;99.90
40454;DHT22;26160;51.858;4.398;2022-10-29T02:30:03;11.30;99.90
40454;DHT22;26160;51.858;4.398;2022-10-29T02:32:29;11.30;99.90
40454;DHT22;26160;51.858;4.398;2022-10-29T02:34:58;11.30;99.90
40454;DHT22;26160;51.858;4.398;2022-10-29T02:37:24;11.30;99.90
40454;DHT22;26160;51.858;4.398;2022-10-29T02:39:53;11.30;99.90
40454;DHT22;26160;51.858;4.398;2022-10-29T02:42:19;11.30;99.90
40454;DHT22;26160;51.858;4.398;2022-10-29T02:44:46;11.30;99.90
40454;DHT22;26160;51.858;4.398;2022-10-29T02:47:12;11.20;99.90
40454;DHT22;26160;51.858;4.398;2022-10-29T02:49:38;11.20;99.90
40454;DHT22;26160;51.858;4.398;2022-10-29T02:52:04;11.20;99.90
40454;DHT22;26160;51.858;4.398;2022-10-29T02:54:30;11.20;99.90
40454;DHT22;26160;51.858;4.398;2022-10-29T02:56:56;11.20;99.90
40454;DHT22;26160;51.858;4.398;2022-10-29T02:59:22;11.30;99.90
40454;DHT22;26160;51.858;4.398;2022-10-29T03:01:49;11.40;99.90
40454;DHT22;26160;51.858;4.398;2022-10-29T03:04:15;11.40;99.90
40454;DHT22;26160;51.858;4.398;2022-10-29T03:06:41;11.40;99.90
40454;DHT22;26160;51.858;4.398;2022-10-29T03:09:07;11.40;99.90
40454;DHT22;26160;51.858;4.398;2022-10-29T03:11:33;11.40;99.90
40454;DHT22;26160;51.858;4.398;2022-10-29T03:13:59;11.50;99.90
40454;DHT22;26160;51.858;4.398;2022-10-29T03:16:26;11.50;99.90
40454;DHT22;26160;51.858;4.398;2022-10-29T03:18:52;11.50;99.90
40454;DHT22;26160;51.858;4.398;2022-10-29T03:21:18;11.60;99.90
40454;DHT22;26160;51.858;4.398;2022-10-29T03:23:45;11.60;99.90
40454;DHT22;26160;51.858;4.398;2022-10-29T03:26:11;11.70;99.90
40454;DHT22;26160;51.858;4.398;2022-10-29T03:28:38;11.70;99.90
40454;DHT22;26160;51.858;4.398;2022-10-29T03:31:04;11.70;99.90
40454;DHT22;26160;51.858;4.398;2022-10-29T03:33:30;11.70;99.90
40454;DHT22;26160;51.858;4.398;2022-10-29T03:36:01;11.70;99.90
40454;DHT22;26160;51.858;4.398;2022-10-29T03:38:27;11.70;99.90
40454;DHT22;26160;51.858;4.398;2022-10-29T03:40:54;11.70;99.90
40454;DHT22;26160;51.858;4.398;2022-10-29T03:43:20;11.70;99.90
40454;DHT22;26160;51.858;4.398;2022-10-29T03:45:53;11.70;99.90
40454;DHT22;26160;51.858;4.398;2022-10-29T03:48:21;11.80;99.90
40454;DHT22;26160;51.858;4.398;2022-10-29T03:50:58;11.90;99.90
40454;DHT22;26160;51.858;4.398;2022-10-29T03:53:27;11.90;99.90
40454;DHT22;26160;51.858;4.398;2022-10-29T03:55:54;11.90;99.90
40454;DHT22;26160;51.858;4.398;2022-10-29T03:58:21;12.00;99.90
40454;DHT22;26160;51.858;4.398;2022-10-29T04:01:02;12.00;99.90
40454;DHT22;26160;51.858;4.398;2022-10-29T04:03:31;12.00;99.90
40454;DHT22;26160;51.858;4.398;2022-10-29T04:05:59;12.00;99.90
40454;DHT22;26160;51.858;4.398;2022-10-29T04:08:26;12.00;99.90
40454;DHT22;26160;51.858;4.398;2022-10-29T04:10:53;12.10;99.90
40454;DHT22;26160;51.858;4.398;2022-10-29T04:13:19;12.10;99.90
40454;DHT22;26160;51.858;4.398;2022-10-29T04:15:45;12.10;99.90
40454;DHT22;26160;51.858;4.398;2022-10-29T04:18:12;12.10;99.90
40454;DHT22;26160;51.858;4.398;2022-10-29T04:20:39;12.20;99.90
40454;DHT22;26160;51.858;4.398;2022-10-29T04:23:05;12.20;99.90
40454;DHT22;26160;51.858;4.398;2022-10-29T04:25:32;12.20;99.90
40454;DHT22;26160;51.858;4.398;2022-10-29T04:27:58;12.30;99.90
40454;DHT22;26160;51.858;4.398;2022-10-29T04:30:24;12.30;99.90
40454;DHT22;26160;51.858;4.398;2022-10-29T04:32:50;12.30;99.90
40454;DHT22;26160;51.858;4.398;2022-10-29T04:35:20;12.30;99.90
40454;DHT22;26160;51.858;4.398;2022-10-29T04:37:46;12.30;99.90
40454;DHT22;26160;51.858;4.398;2022-10-29T04:40:12;12.30;99.90
40454;DHT22;26160;51.858;4.398;2022-10-29T04:42:39;12.30;99.90
40454;DHT22;26160;51.858;4.398;2022-10-29T04:45:06;12.30;99.90
40454;DHT22;26160;51.858;4.398;2022-10-29T04:47:33;12.30;99.90
40454;DHT22;26160;51.858;4.398;2022-10-29T04:49:59;12.30;99.90
40454;DHT22;26160;51.858;4.398;2022-10-29T04:52:25;12.30;99.90
40454;DHT22;26160;51.858;4.398;2022-10-29T04:54:51;12.40;99.90
40454;DHT22;26160;51.858;4.398;2022-10-29T04:57:17;12.40;99.90
40454;DHT22;26160;51.858;4.398;2022-10-29T04:59:43;12.50;99.90
40454;DHT22;26160;51.858;4.398;2022-10-29T05:02:09;12.50;99.90
40454;DHT22;26160;51.858;4.398;2022-10-29T05:04:35;12.50;99.90
40454;DHT22;26160;51.858;4.398;2022-10-29T05:07:04;12.50;99.90
40454;DHT22;26160;51.858;4.398;2022-10-29T05:09:31;12.50;99.90
40454;DHT22;26160;51.858;4.398;2022-10-29T05:11:57;12.50;99.90
40454;DHT22;26160;51.858;4.398;2022-10-29T05:14:23;12.50;99.90
40454;DHT22;26160;51.858;4.398;2022-10-29T05:16:49;12.50;99.90
40454;DHT22;26160;51.858;4.398;2022-10-29T05:19:15;12.60;99.90
40454;DHT22;26160;51.858;4.398;2022-10-29T05:21:41;12.60;99.90
40454;DHT22;26160;51.858;4.398;2022-10-29T05:24:07;12.60;99.90
40454;DHT22;26160;51.858;4.398;2022-10-29T05:26:33;12.60;99.90
40454;DHT22;26160;51.858;4.398;2022-10-29T05:28:59;12.60;99.90
40454;DHT22;26160;51.858;4.398;2022-10-29T05:31:25;12.60;99.90
40454;DHT22;26160;51.858;4.398;2022-10-29T05:33:51;12.60;99.90
40454;DHT22;26160;51.858;4.398;2022-10-29T05:36:20;12.60;99.90
40454;DHT22;26160;51.858;4.398;2022-10-29T05:38:46;12.50;99.90
40454;DHT22;26160;51.858;4.398;2022-10-29T05:41:12;12.50;99.90
40454;DHT22;26160;51.858;4.398;2022-10-29T05:43:38;12.40;99.90
40454;DHT22;26160;51.858;4.398;2022-10-29T05:46:04;12.50;99.90
40454;DHT22;26160;51.858;4.398;2022-10-29T05:48:30;12.50;99.90
40454;DHT22;26160;51.858;4.398;2022-10-29T05:50:57;12.60;99.90
40454;DHT22;26160;51.858;4.398;2022-10-29T05:53:23;12.60;99.90
40454;DHT22;26160;51.858;4.398;2022-10-29T05:55:49;12.60;99.90
40454;DHT22;26160;51.858;4.398;2022-10-29T05:58:15;12.60;99.90
40454;DHT22;26160;51.858;4.398;2022-10-29T06:00:43;12.70;99.90
40454;DHT22;26160;51.858;4.398;2022-10-29T06:03:15;12.70;99.90
40454;DHT22;26160;51.858;4.398;2022-10-29T06:05:41;12.80;99.90
40454;DHT22;26160;51.858;4.398;2022-10-29T06:08:07;12.90;99.90
40454;DHT22;26160;51.858;4.398;2022-10-29T06:10:34;12.90;99.90
40454;DHT22;26160;51.858;4.398;2022-10-29T06:13:01;12.90;99.90
40454;DHT22;26160;51.858;4.398;2022-10-29T06:15:27;13.00;99.90
40454;DHT22;26160;51.858;4.398;2022-10-29T06:17:53;13.00;99.90
40454;DHT22;26160;51.858;4.398;2022-10-29T06:20:19;13.10;99.90
40454;DHT22;26160;51.858;4.398;2022-10-29T06:22:46;13.10;99.90
40454;DHT22;26160;51.858;4.398;2022-10-29T06:25:12;13.10;99.90
40454;DHT22;26160;51.858;4.398;2022-10-29T06:27:39;13.10;99.90
40454;DHT22;26160;51.858;4.398;2022-10-29T06:30:05;13.20;99.90
40454;DHT22;26160;51.858;4.398;2022-10-29T06:32:31;13.30;99.90
40454;DHT22;26160;51.858;4.398;2022-10-29T06:34:57;13.30;99.90
40454;DHT22;26160;51.858;4.398;2022-10-29T06:37:24;13.40;99.90
40454;DHT22;26160;51.858;4.398;2022-10-29T06:39:50;13.50;99.90
40454;DHT22;26160;51.858;4.398;2022-10-29T06:42:16;13.50;99.90
40454;DHT22;26160;51.858;4.398;2022-10-29T06:44:42;13.50;99.90
40454;DHT22;26160;51.858;4.398;2022-10-29T06:47:08;13.60;99.90
40454;DHT22;26160;51.858;4.398;2022-10-29T06:49:34;13.60;99.90
40454;DHT22;26160;51.858;4.398;2022-10-29T06:52:00;13.70;99.90
40454;DHT22;26160;51.858;4.398;2022-10-29T06:54:26;13.70;99.90
40454;DHT22;26160;51.858;4.398;2022-10-29T06:56:52;13.80;99.90
40454;DHT22;26160;51.858;4.398;2022-10-29T06:59:19;13.90;99.90
40454;DHT22;26160;51.858;4.398;2022-10-29T07:01:45;13.90;99.90
40454;DHT22;26160;51.858;4.398;2022-10-29T07:04:11;13.90;99.90
40454;DHT22;26160;51.858;4.398;2022-10-29T07:06:37;14.00;99.90
40454;DHT22;26160;51.858;4.398;2022-10-29T07:09:03;14.00;99.90
40454;DHT22;26160;51.858;4.398;2022-10-29T07:11:29;14.00;99.90
40454;DHT22;26160;51.858;4.398;2022-10-29T07:13:55;14.00;99.90
40454;DHT22;26160;51.858;4.398;2022-10-29T07:16:24;14.10;99.90
40454;DHT22;26160;51.858;4.398;2022-10-29T07:18:51;14.20;99.90
40454;DHT22;26160;51.858;4.398;2022-10-29T07:21:21;14.20;99.90
40454;DHT22;26160;51.858;4.398;2022-10-29T07:23:47;14.30;99.90
40454;DHT22;26160;51.858;4.398;2022-10-29T07:26:13;14.30;99.90
40454;DHT22;26160;51.858;4.398;2022-10-29T07:28:39;14.40;99.90
40454;DHT22;26160;51.858;4.398;2022-10-29T07:31:05;14.50;99.90
40454;DHT22;26160;51.858;4.398;2022-10-29T07:33:32;14.50;99.90
40454;DHT22;26160;51.858;4.398;2022-10-29T07:35:59;14.50;99.90
40454;DHT22;26160;51.858;4.398;2022-10-29T07:38:28;14.50;99.90
40454;DHT22;26160;51.858;4.398;2022-10-29T07:40:54;14.50;99.90
40454;DHT22;26160;51.858;4.398;2022-10-29T07:43:20;14.60;99.90
40454;DHT22;26160;51.858;4.398;2022-10-29T07:45:48;14.70;99.90
40454;DHT22;26160;51.858;4.398;2022-10-29T07:48:18;14.70;99.90
40454;DHT22;26160;51.858;4.398;2022-10-29T07:50:45;14.80;99.90
40454;DHT22;26160;51.858;4.398;2022-10-29T07:53:12;14.90;99.90
40454;DHT22;26160;51.858;4.398;2022-10-29T07:55:38;14.90;99.90
40454;DHT22;26160;51.858;4.398;2022-10-29T07:58:06;15.10;99.90
40454;DHT22;26160;51.858;4.398;2022-10-29T08:00:34;15.10;99.90
40454;DHT22;26160;51.858;4.398;2022-10-29T08:03:01;15.20;99.90
40454;DHT22;26160;51.858;4.398;2022-10-29T08:05:28;15.20;99.90
40454;DHT22;26160;51.858;4.398;2022-10-29T08:07:55;15.20;99.90
40454;DHT22;26160;51.858;4.398;2022-10-29T08:10:22;15.30;99.90
40454;DHT22;26160;51.858;4.398;2022-10-29T08:12:52;15.40;99.90
40454;DHT22;26160;51.858;4.398;2022-10-29T08:15:19;15.40;99.90
40454;DHT22;26160;51.858;4.398;2022-10-29T08:17:45;15.50;99.90
40454;DHT22;26160;51.858;4.398;2022-10-29T08:20:12;15.50;99.90
40454;DHT22;26160;51.858;4.398;2022-10-29T08:22:38;15.50;99.90
40454;DHT22;26160;51.858;4.398;2022-10-29T08:25:05;15.50;99.90
40454;DHT22;26160;51.858;4.398;2022-10-29T08:27:31;15.60;99.90
40454;DHT22;26160;51.858;4.398;2022-10-29T08:29:57;15.60;99.90
40454;DHT22;26160;51.858;4.398;2022-10-29T08:32:23;15.60;99.90
40454;DHT22;26160;51.858;4.398;2022-10-29T08:34:49;15.70;99.90
40454;DHT22;26160;51.858;4.398;2022-10-29T08:37:15;15.70;99.90
40454;DHT22;26160;51.858;4.398;2022-10-29T08:39:42;15.80;99.90
40454;DHT22;26160;51.858;4.398;2022-10-29T08:50:41;16.10;99.90
40454;DHT22;26160;51.858;4.398;2022-10-29T08:53:20;16.20;99.90
40454;DHT22;26160;51.858;4.398;2022-10-29T08:55:47;16.20;99.90
40454;DHT22;26160;51.858;4.398;2022-10-29T09:00:53;16.30;99.90
40454;DHT22;26160;51.858;4.398;2022-10-29T09:03:20;16.40;99.90
40454;DHT22;26160;51.858;4.398;2022-10-29T09:15:02;16.60;99.90
40454;DHT22;26160;51.858;4.398;2022-10-29T09:18:01;16.70;99.90
40454;DHT22;26160;51.858;4.398;2022-10-29T09:25:34;16.70;99.90
40454;DHT22;26160;51.858;4.398;2022-10-29T09:28:34;16.70;99.90
40454;DHT22;26160;51.858;4.398;2022-10-29T09:33:52;16.70;99.90
40454;DHT22;26160;51.858;4.398;2022-10-29T09:36:21;16.80;99.90
40454;DHT22;26160;51.858;4.398;2022-10-29T09:39:03;16.90;99.90
40454;DHT22;26160;51.858;4.398;2022-10-29T09:41:35;16.90;99.90
40454;DHT22;26160;51.858;4.398;2022-10-29T09:44:06;17.00;99.90
40454;DHT22;26160;51.858;4.398;2022-10-29T09:49:57;17.10;99.90
40454;DHT22;26160;51.858;4.398;2022-10-29T09:52:29;17.00;99.90
40454;DHT22;26160;51.858;4.398;2022-10-29T09:54:57;17.00;99.90
40454;DHT22;26160;51.858;4.398;2022-10-29T09:57:28;17.00;99.90
40454;DHT22;26160;51.858;4.398;2022-10-29T10:00:00;17.00;99.90
40454;DHT22;26160;51.858;4.398;2022-10-29T10:02:43;17.00;99.90
40454;DHT22;26160;51.858;4.398;2022-10-29T10:07:39;17.00;99.90
40454;DHT22;26160;51.858;4.398;2022-10-29T10:10:11;17.10;99.90
40454;DHT22;26160;51.858;4.398;2022-10-29T10:12:48;17.20;99.90
40454;DHT22;26160;51.858;4.398;2022-10-29T10:18:15;17.40;99.90
40454;DHT22;26160;51.858;4.398;2022-10-29T10:20:44;17.40;99.90
40454;DHT22;26160;51.858;4.398;2022-10-29T10:23:26;17.50;99.90
40454;DHT22;26160;51.858;4.398;2022-10-29T10:25:57;17.60;99.90
40454;DHT22;26160;51.858;4.398;2022-10-29T10:28:25;17.60;99.90
40454;DHT22;26160;51.858;4.398;2022-10-29T10:33:31;17.70;99.90
40454;DHT22;26160;51.858;4.398;2022-10-29T10:36:04;17.90;99.90
40454;DHT22;26160;51.858;4.398;2022-10-29T10:38:51;18.10;99.90
40454;DHT22;26160;51.858;4.398;2022-10-29T10:41:33;18.20;99.90
40454;DHT22;26160;51.858;4.398;2022-10-29T10:44:02;18.30;99.90
40454;DHT22;26160;51.858;4.398;2022-10-29T10:46:37;18.40;99.90
40454;DHT22;26160;51.858;4.398;2022-10-29T10:51:37;18.60;99.90
40454;DHT22;26160;51.858;4.398;2022-10-29T10:57:33;18.80;99.90
40454;DHT22;26160;51.858;4.398;2022-10-29T11:00:18;18.90;99.90
40454;DHT22;26160;51.858;4.398;2022-10-29T11:03:03;19.00;99.90
40454;DHT22;26160;51.858;4.398;2022-10-29T11:05:41;19.10;99.90
40454;DHT22;26160;51.858;4.398;2022-10-29T11:08:24;19.20;99.90
40454;DHT22;26160;51.858;4.398;2022-10-29T11:10:54;19.30;99.90
40454;DHT22;26160;51.858;4.398;2022-10-29T11:13:27;19.40;99.90
40454;DHT22;26160;51.858;4.398;2022-10-29T11:18:57;19.60;99.90
40454;DHT22;26160;51.858;4.398;2022-10-29T11:21:28;19.50;99.90
40454;DHT22;26160;51.858;4.398;2022-10-29T11:24:09;19.60;99.90
40454;DHT22;26160;51.858;4.398;2022-10-29T11:26:43;19.70;99.90
40454;DHT22;26160;51.858;4.398;2022-10-29T11:31:57;19.90;99.90
40454;DHT22;26160;51.858;4.398;2022-10-29T11:37:36;20.60;99.90
40454;DHT22;26160;51.858;4.398;2022-10-29T11:40:16;20.60;99.90
40454;DHT22;26160;51.858;4.398;2022-10-29T11:42:43;20.60;99.90
40454;DHT22;26160;51.858;4.398;2022-10-29T11:45:37;20.60;99.90
40454;DHT22;26160;51.858;4.398;2022-10-29T11:48:13;20.60;99.90
40454;DHT22;26160;51.858;4.398;2022-10-29T11:51:05;20.60;99.90
40454;DHT22;26160;51.858;4.398;2022-10-29T11:53:52;20.50;99.90
40454;DHT22;26160;51.858;4.398;2022-10-29T11:56:58;20.60;99.90
40454;DHT22;26160;51.858;4.398;2022-10-29T12:13:41;20.50;99.90
40454;DHT22;26160;51.858;4.398;2022-10-29T12:27:19;20.60;99.90
40454;DHT22;26160;51.858;4.398;2022-10-29T12:30:09;20.60;99.90
40454;DHT22;26160;51.858;4.398;2022-10-29T12:35:26;20.60;99.90
40454;DHT22;26160;51.858;4.398;2022-10-29T12:41:22;20.80;99.90
40454;DHT22;26160;51.858;4.398;2022-10-29T12:43:50;20.90;99.90
40454;DHT22;26160;51.858;4.398;2022-10-29T12:49:17;21.20;99.90
40454;DHT22;26160;51.858;4.398;2022-10-29T12:52:03;21.50;99.90
40454;DHT22;26160;51.858;4.398;2022-10-29T12:54:45;21.60;99.90
40454;DHT22;26160;51.858;4.398;2022-10-29T12:59:39;22.00;99.90
40454;DHT22;26160;51.858;4.398;2022-10-29T13:07:32;22.10;99.90
40454;DHT22;26160;51.858;4.398;2022-10-29T13:13:02;22.00;99.90
40454;DHT22;26160;51.858;4.398;2022-10-29T13:15:45;22.10;99.90
40454;DHT22;26160;51.858;4.398;2022-10-29T13:20:52;21.90;99.90
40454;DHT22;26160;51.858;4.398;2022-10-29T13:25:57;21.80;99.90
40454;DHT22;26160;51.858;4.398;2022-10-29T13:41:28;21.80;99.90
40454;DHT22;26160;51.858;4.398;2022-10-29T13:44:18;21.90;99.90
40454;DHT22;26160;51.858;4.398;2022-10-29T13:49:23;22.00;99.90
40454;DHT22;26160;51.858;4.398;2022-10-29T13:57:14;22.10;99.90
40454;DHT22;26160;51.858;4.398;2022-10-29T14:05:22;22.10;99.90
40454;DHT22;26160;51.858;4.398;2022-10-29T14:08:07;22.10;99.90
40454;DHT22;26160;51.858;4.398;2022-10-29T14:16:02;21.90;99.90
40454;DHT22;26160;51.858;4.398;2022-10-29T14:18:46;21.90;99.90
40454;DHT22;26160;51.858;4.398;2022-10-29T14:21:36;21.70;99.90
40454;DHT22;26160;51.858;4.398;2022-10-29T14:24:05;21.70;99.90
40454;DHT22;26160;51.858;4.398;2022-10-29T14:26:34;21.60;99.90
40454;DHT22;26160;51.858;4.398;2022-10-29T14:29:21;21.50;99.90
40454;DHT22;26160;51.858;4.398;2022-10-29T14:32:08;21.60;99.90
40454;DHT22;26160;51.858;4.398;2022-10-29T14:34:36;21.50;99.90
40454;DHT22;26160;51.858;4.398;2022-10-29T14:39:52;21.50;99.90
40454;DHT22;26160;51.858;4.398;2022-10-29T14:42:32;21.30;99.90
40454;DHT22;26160;51.858;4.398;2022-10-29T14:45:04;21.30;99.90
40454;DHT22;26160;51.858;4.398;2022-10-29T14:47:34;21.20;99.90
40454;DHT22;26160;51.858;4.398;2022-10-29T14:50:14;21.20;99.90
40454;DHT22;26160;51.858;4.398;2022-10-29T14:52:44;21.20;99.90
40454;DHT22;26160;51.858;4.398;2022-10-29T14:55:24;21.20;99.90
40454;DHT22;26160;51.858;4.398;2022-10-29T14:58:19;21.10;99.90
40454;DHT22;26160;51.858;4.398;2022-10-29T15:00:56;21.00;99.90
40454;DHT22;26160;51.858;4.398;2022-10-29T15:03:25;21.00;99.90
40454;DHT22;26160;51.858;4.398;2022-10-29T15:08:42;20.90;99.90
40454;DHT22;26160;51.858;4.398;2022-10-29T15:11:35;20.80;99.90
40454;DHT22;26160;51.858;4.398;2022-10-29T15:14:02;20.70;99.90
40454;DHT22;26160;51.858;4.398;2022-10-29T15:16:29;20.70;99.90
40454;DHT22;26160;51.858;4.398;2022-10-29T15:19:00;20.70;99.90
40454;DHT22;26160;51.858;4.398;2022-10-29T15:21:28;20.70;99.90
40454;DHT22;26160;51.858;4.398;2022-10-29T15:24:06;20.70;99.90
40454;DHT22;26160;51.858;4.398;2022-10-29T15:26:34;20.60;99.90
40454;DHT22;26160;51.858;4.398;2022-10-29T15:29:08;20.60;99.90
40454;DHT22;26160;51.858;4.398;2022-10-29T15:31:44;20.60;99.90
40454;DHT22;26160;51.858;4.398;2022-10-29T15:34:17;20.50;99.90
40454;DHT22;26160;51.858;4.398;2022-10-29T15:36:54;20.50;99.90
40454;DHT22;26160;51.858;4.398;2022-10-29T15:39:23;20.30;99.90
40454;DHT22;26160;51.858;4.398;2022-10-29T15:41:55;20.20;99.90
40454;DHT22;26160;51.858;4.398;2022-10-29T15:44:28;20.10;99.90
40454;DHT22;26160;51.858;4.398;2022-10-29T15:46:57;20.10;99.90
40454;DHT22;26160;51.858;4.398;2022-10-29T15:49:27;20.10;99.90
40454;DHT22;26160;51.858;4.398;2022-10-29T15:51:56;20.00;99.90
40454;DHT22;26160;51.858;4.398;2022-10-29T15:54:22;19.90;99.90
40454;DHT22;26160;51.858;4.398;2022-10-29T15:56:49;19.90;99.90
40454;DHT22;26160;51.858;4.398;2022-10-29T15:59:22;19.80;99.90
40454;DHT22;26160;51.858;4.398;2022-10-29T16:01:49;19.70;99.90
40454;DHT22;26160;51.858;4.398;2022-10-29T16:04:15;19.60;99.90
40454;DHT22;26160;51.858;4.398;2022-10-29T16:06:41;19.50;99.90
40454;DHT22;26160;51.858;4.398;2022-10-29T16:09:18;19.60;99.90
40454;DHT22;26160;51.858;4.398;2022-10-29T16:11:45;19.60;99.90
40454;DHT22;26160;51.858;4.398;2022-10-29T16:14:11;19.50;99.90
40454;DHT22;26160;51.858;4.398;2022-10-29T16:16:37;19.50;99.90
40454;DHT22;26160;51.858;4.398;2022-10-29T16:19:03;19.50;99.90
40454;DHT22;26160;51.858;4.398;2022-10-29T16:21:29;19.70;99.90
40454;DHT22;26160;51.858;4.398;2022-10-29T16:23:55;19.40;99.90
40454;DHT22;26160;51.858;4.398;2022-10-29T16:26:24;19.40;99.90
40454;DHT22;26160;51.858;4.398;2022-10-29T16:28:51;19.30;99.90
40454;DHT22;26160;51.858;4.398;2022-10-29T16:31:23;19.20;99.90
40454;DHT22;26160;51.858;4.398;2022-10-29T16:33:52;19.20;99.90
40454;DHT22;26160;51.858;4.398;2022-10-29T16:36:18;19.10;99.90
40454;DHT22;26160;51.858;4.398;2022-10-29T16:38:47;19.10;99.90
40454;DHT22;26160;51.858;4.398;2022-10-29T16:41:15;19.00;99.90
40454;DHT22;26160;51.858;4.398;2022-10-29T16:43:46;18.90;99.90
40454;DHT22;26160;51.858;4.398;2022-10-29T16:46:13;18.90;99.90
40454;DHT22;26160;51.858;4.398;2022-10-29T16:48:40;18.90;99.90
40454;DHT22;26160;51.858;4.398;2022-10-29T16:51:06;18.80;99.90
40454;DHT22;26160;51.858;4.398;2022-10-29T16:53:32;18.80;99.90
40454;DHT22;26160;51.858;4.398;2022-10-29T16:55:58;18.70;99.90
40454;DHT22;26160;51.858;4.398;2022-10-29T16:58:25;18.70;99.90
40454;DHT22;26160;51.858;4.398;2022-10-29T17:01:00;18.70;99.90
40454;DHT22;26160;51.858;4.398;2022-10-29T17:03:27;18.60;99.90
40454;DHT22;26160;51.858;4.398;2022-10-29T17:05:53;18.60;99.90
40454;DHT22;26160;51.858;4.398;2022-10-29T17:08:19;18.70;99.90
40454;DHT22;26160;51.858;4.398;2022-10-29T17:10:45;18.70;99.90
40454;DHT22;26160;51.858;4.398;2022-10-29T17:13:11;18.80;99.90
40454;DHT22;26160;51.858;4.398;2022-10-29T17:15:41;18.80;99.90
40454;DHT22;26160;51.858;4.398;2022-10-29T17:18:07;18.80;99.90
40454;DHT22;26160;51.858;4.398;2022-10-29T17:20:33;18.70;99.90
40454;DHT22;26160;51.858;4.398;2022-10-29T17:22:59;18.70;99.90
40454;DHT22;26160;51.858;4.398;2022-10-29T17:25:25;18.70;99.90
40454;DHT22;26160;51.858;4.398;2022-10-29T17:27:51;18.80;99.90
40454;DHT22;26160;51.858;4.398;2022-10-29T17:30:17;18.90;99.90
40454;DHT22;26160;51.858;4.398;2022-10-29T17:32:43;18.90;99.90
40454;DHT22;26160;51.858;4.398;2022-10-29T17:35:09;19.00;99.90
40454;DHT22;26160;51.858;4.398;2022-10-29T17:37:35;19.00;99.90
40454;DHT22;26160;51.858;4.398;2022-10-29T17:40:02;19.10;99.90
40454;DHT22;26160;51.858;4.398;2022-10-29T17:42:28;19.10;99.90
40454;DHT22;26160;51.858;4.398;2022-10-29T17:44:55;19.10;99.90
40454;DHT22;26160;51.858;4.398;2022-10-29T17:47:21;19.10;99.90
40454;DHT22;26160;51.858;4.398;2022-10-29T17:49:47;19.00;99.90
40454;DHT22;26160;51.858;4.398;2022-10-29T17:52:13;19.00;99.90
40454;DHT22;26160;51.858;4.398;2022-10-29T17:54:39;18.90;99.90
40454;DHT22;26160;51.858;4.398;2022-10-29T17:57:05;18.90;99.90
40454;DHT22;26160;51.858;4.398;2022-10-29T17:59:32;18.90;99.90
40454;DHT22;26160;51.858;4.398;2022-10-29T18:01:58;18.80;99.90
40454;DHT22;26160;51.858;4.398;2022-10-29T18:04:24;18.80;99.90
40454;DHT22;26160;51.858;4.398;2022-10-29T18:06:50;18.70;99.90
40454;DHT22;26160;51.858;4.398;2022-10-29T18:09:17;18.60;99.90
40454;DHT22;26160;51.858;4.398;2022-10-29T18:11:43;18.60;99.90
40454;DHT22;26160;51.858;4.398;2022-10-29T18:14:09;18.50;99.90
40454;DHT22;26160;51.858;4.398;2022-10-29T18:16:35;18.40;99.90
40454;DHT22;26160;51.858;4.398;2022-10-29T18:19:01;18.40;99.90
40454;DHT22;26160;51.858;4.398;2022-10-29T18:21:29;18.30;99.90
40454;DHT22;26160;51.858;4.398;2022-10-29T18:23:55;18.20;99.90
40454;DHT22;26160;51.858;4.398;2022-10-29T18:26:30;18.20;99.90
40454;DHT22;26160;51.858;4.398;2022-10-29T18:28:58;18.20;99.90
40454;DHT22;26160;51.858;4.398;2022-10-29T18:31:27;18.00;99.90